Time;durP1;ratioP1;P1;durP2;ratioP2;P2;SDS_P1;SDS_P2;PMS_P1;PMS_P2;Temp;Humidity;BMP_temperature;BMP_pressure;BME280_temperature;BME280_humidity;BME280_pressure;Samples;Min_cycle;Max_cycle;Signal;HPM_P1;HPM_P2
2021/03/21 00:00:18;;;;;;;14.45;12.15;;;;;;;5.86;64.47;102193.34;345179;28;1126;-62
2021/03/21 00:00:35;;;;;;;14.07;12.25;;;;;;;5.83;65.13;102190.75;343014;28;71263;-62
2021/03/21 00:00:49;;;;;;;14.02;12.23;;;;;;;5.83;64.67;102196.00;341620;28;71979;-62
2021/03/21 00:01:01;;;;;;;14.90;11.90;;;;;;;5.80;64.97;102197.75;342319;28;48147;-62
2021/03/21 00:01:12;;;;;;;15.43;11.85;;;;;;;5.83;65.84;102190.75;343894;28;1086;-61
2021/03/21 00:01:23;;;;;;;14.52;12.10;;;;;;;5.87;64.87;102196.88;345406;28;1148;-62
2021/03/21 00:01:37;;;;;;;14.50;12.27;;;;;;;5.86;63.97;102190.72;346705;28;1090;-62
2021/03/21 00:01:49;;;;;;;14.16;12.06;;;;;;;5.85;64.35;102189.00;346779;28;1102;-62
2021/03/21 00:02:01;;;;;;;14.02;12.02;;;;;;;5.88;64.85;102188.09;346608;28;1152;-62
2021/03/21 00:02:13;;;;;;;14.02;11.90;;;;;;;5.86;64.69;102190.72;346618;28;1141;-65
2021/03/21 00:02:24;;;;;;;13.48;12.00;;;;;;;5.87;65.66;102183.75;346731;28;1058;-63
2021/03/21 00:02:35;;;;;;;13.50;12.02;;;;;;;5.87;64.56;102189.84;346729;28;1122;-62
2021/03/21 00:02:46;;;;;;;13.75;12.15;;;;;;;5.88;64.66;102188.09;347949;28;1201;-63
2021/03/21 00:02:59;;;;;;;14.02;12.07;;;;;;;5.90;64.40;102192.47;348058;28;1178;-63
2021/03/21 00:03:11;;;;;;;13.73;11.70;;;;;;;5.90;64.40;102192.47;348228;28;1073;-63
2021/03/21 00:03:23;;;;;;;13.43;11.60;;;;;;;5.91;64.96;102196.84;348092;28;1081;-62
2021/03/21 00:03:35;;;;;;;13.23;11.43;;;;;;;5.92;65.28;102192.44;348121;28;1118;-62
2021/03/21 00:03:46;;;;;;;12.88;11.45;;;;;;;5.93;64.95;102189.84;348105;28;1069;-62
2021/03/21 00:03:57;;;;;;;13.35;11.93;;;;;;;5.93;65.55;102189.84;348020;28;1120;-63
2021/03/21 00:04:12;;;;;;;13.50;11.90;;;;;;;5.94;65.50;102194.19;348069;28;1085;-62
2021/03/21 00:04:24;;;;;;;15.60;12.02;;;;;;;5.97;65.47;102184.56;346553;28;23510;-62
2021/03/21 00:04:35;;;;;;;16.35;12.02;;;;;;;5.94;65.17;102178.44;347942;28;1836;-62
2021/03/21 00:04:46;;;;;;;14.90;12.05;;;;;;;5.94;65.37;102188.94;348030;28;1138;-63
2021/03/21 00:04:57;;;;;;;14.57;12.00;;;;;;;5.92;64.60;102184.56;347985;28;1232;-62
2021/03/21 00:05:09;;;;;;;14.65;11.63;;;;;;;5.84;64.92;102191.59;348058;28;1161;-62
2021/03/21 00:05:20;;;;;;;14.80;11.50;;;;;;;5.75;64.27;102182.03;348065;28;1228;-63
2021/03/21 00:05:31;;;;;;;14.68;11.38;;;;;;;5.76;64.75;102175.94;348192;28;1312;-62
2021/03/21 00:05:43;;;;;;;14.20;11.60;;;;;;;5.81;65.49;102182.03;348197;28;1102;-63
2021/03/21 00:05:54;;;;;;;13.57;11.80;;;;;;;5.83;64.85;102180.25;348153;28;1057;-62
2021/03/21 00:06:05;;;;;;;14.45;11.77;;;;;;;5.84;64.74;102182.00;348187;28;1133;-63
2021/03/21 00:06:17;;;;;;;15.18;12.10;;;;;;;5.86;65.49;102184.63;348235;28;1148;-60
2021/03/21 00:06:28;;;;;;;16.33;12.35;;;;;;;5.86;65.12;102184.63;348179;28;1221;-62
2021/03/21 00:06:39;;;;;;;15.75;12.30;;;;;;;5.87;65.33;102184.59;348133;28;1126;-62
2021/03/21 00:06:50;;;;;;;15.82;12.00;;;;;;;5.87;66.00;102182.00;348184;28;1085;-61
2021/03/21 00:07:02;;;;;;;15.27;11.82;;;;;;;5.88;65.56;102183.75;348176;28;1073;-61
2021/03/21 00:07:13;;;;;;;15.57;12.00;;;;;;;5.78;63.78;102179.41;347589;28;1679;-61
2021/03/21 00:07:24;;;;;;;15.27;12.30;;;;;;;5.77;65.55;102180.31;348071;28;1835;-62
2021/03/21 00:07:35;;;;;;;16.42;12.40;;;;;;;5.81;65.15;102179.41;348152;28;975;-61
2021/03/21 00:07:52;;;;;;;16.20;12.13;;;;;;;5.78;65.45;102177.66;348070;28;1965;-61
2021/03/21 00:08:16;;;;;;;15.68;11.80;;;;;;;5.69;64.54;102182.06;345819;28;72075;-62
2021/03/21 00:08:30;;;;;;;16.70;11.90;;;;;;;5.70;64.30;102179.44;345764;28;70915;-61
2021/03/21 00:08:41;;;;;;;14.70;11.95;;;;;;;5.75;64.70;102188.13;347357;28;24014;-61
2021/03/21 00:08:53;;;;;;;14.80;12.10;;;;;;;5.77;64.95;102191.66;348178;28;1217;-62
2021/03/21 00:09:05;;;;;;;15.32;12.20;;;;;;;5.81;65.26;102184.66;348159;28;1131;-61
2021/03/21 00:09:16;;;;;;;15.65;12.35;;;;;;;5.83;64.93;102184.66;348164;28;1405;-65
2021/03/21 00:09:27;;;;;;;15.23;12.45;;;;;;;5.82;65.43;102182.88;348036;28;1192;-62
2021/03/21 00:09:38;;;;;;;15.23;12.35;;;;;;;5.80;65.51;102187.25;348211;28;1113;-61
2021/03/21 00:09:49;;;;;;;14.73;12.57;;;;;;;5.82;64.42;102189.00;348240;28;1034;-61
2021/03/21 00:10:02;;;;;;;15.20;12.57;;;;;;;5.84;65.29;102182.00;348179;28;1209;-62
2021/03/21 00:10:13;;;;;;;15.23;12.30;;;;;;;5.85;66.01;102190.75;348193;28;1151;-62
2021/03/21 00:10:25;;;;;;;16.50;12.05;;;;;;;5.85;64.58;102182.88;348111;28;1104;-62
2021/03/21 00:10:36;;;;;;;16.05;12.07;;;;;;;5.82;64.52;102186.38;348228;28;1175;-61
2021/03/21 00:10:50;;;;;;;17.10;12.38;;;;;;;5.78;64.69;102187.25;348174;28;1173;-62
2021/03/21 00:11:07;;;;;;;15.90;12.63;;;;;;;5.81;64.80;102184.66;348036;28;1244;-62
2021/03/21 00:11:18;;;;;;;14.48;12.07;;;;;;;5.80;64.93;102184.63;345662;28;70380;-61
2021/03/21 00:11:30;;;;;;;14.93;12.45;;;;;;;5.78;64.98;102182.91;348000;28;1073;-61
2021/03/21 00:11:41;;;;;;;15.35;12.82;;;;;;;5.76;65.05;102186.41;348124;28;1065;-62
2021/03/21 00:11:52;;;;;;;16.58;12.80;;;;;;;5.79;64.46;102186.41;348107;28;1101;-61
2021/03/21 00:12:04;;;;;;;17.55;12.55;;;;;;;5.75;64.47;102177.66;348109;28;1049;-62
2021/03/21 00:12:15;;;;;;;18.73;13.13;;;;;;;5.79;65.35;102183.78;347961;28;1134;-62
2021/03/21 00:12:26;;;;;;;18.75;13.32;;;;;;;5.74;65.30;102178.56;347998;28;1138;-61
2021/03/21 00:12:37;;;;;;;17.06;13.38;;;;;;;5.80;65.13;102179.38;348030;28;1142;-61
2021/03/21 00:12:49;;;;;;;16.20;13.00;;;;;;;5.81;64.41;102179.41;348116;28;1061;-61
2021/03/21 00:13:01;;;;;;;15.82;12.82;;;;;;;5.75;64.72;102187.28;348130;28;1072;-61
2021/03/21 00:13:13;;;;;;;15.50;12.43;;;;;;;5.80;65.01;102190.75;348104;28;1128;-62
2021/03/21 00:13:25;;;;;;;15.20;12.27;;;;;;;5.80;65.76;102187.25;348177;28;1065;-61
2021/03/21 00:13:36;;;;;;;15.43;12.23;;;;;;;5.82;65.78;102180.28;348059;28;1320;-61
2021/03/21 00:13:47;;;;;;;14.77;12.10;;;;;;;5.82;64.30;102183.75;348096;28;1105;-61
2021/03/21 00:13:58;;;;;;;14.50;12.48;;;;;;;5.84;65.83;102183.75;348032;28;1115;-60
2021/03/21 00:14:09;;;;;;;14.23;12.23;;;;;;;5.87;65.26;102189.00;348026;28;1201;-62
2021/03/21 00:14:20;;;;;;;14.23;12.00;;;;;;;5.89;64.53;102189.84;348033;28;1081;-60
2021/03/21 00:14:32;;;;;;;14.18;11.98;;;;;;;5.86;64.78;102187.25;348099;28;1113;-60
2021/03/21 00:14:43;;;;;;;15.48;12.35;;;;;;;5.86;64.23;102187.25;348092;28;1022;-60
2021/03/21 00:14:54;;;;;;;15.35;12.77;;;;;;;5.89;65.74;102187.22;348115;28;1081;-60
2021/03/21 00:15:06;;;;;;;15.13;12.63;;;;;;;5.87;66.16;102189.00;347599;28;1731;-60
2021/03/21 00:15:18;;;;;;;15.30;12.38;;;;;;;5.84;65.71;102183.75;347812;28;1718;-60
2021/03/21 00:15:30;;;;;;;15.13;12.10;;;;;;;5.85;65.10;102188.13;348068;28;1428;-59
2021/03/21 00:15:41;;;;;;;15.32;12.18;;;;;;;5.85;64.71;102189.00;348170;28;1113;-60
2021/03/21 00:15:54;;;;;;;14.85;12.30;;;;;;;5.83;65.01;102185.50;348183;28;1073;-60
2021/03/21 00:16:07;;;;;;;14.65;12.10;;;;;;;5.85;65.08;102183.75;348066;28;1076;-60
2021/03/21 00:16:18;;;;;;;13.86;11.80;;;;;;;5.86;65.56;102180.25;348066;28;1139;-60
2021/03/21 00:16:31;;;;;;;14.10;11.90;;;;;;;5.85;65.93;102177.63;348009;28;1181;-60
2021/03/21 00:16:42;;;;;;;14.24;11.84;;;;;;;5.85;65.27;102183.75;348039;28;1390;-60
2021/03/21 00:16:54;;;;;;;15.68;12.13;;;;;;;5.83;65.25;102190.75;348032;28;1086;-59
2021/03/21 00:17:05;;;;;;;15.27;12.05;;;;;;;5.84;65.07;102184.63;347994;28;2032;-59
2021/03/21 00:17:16;;;;;;;14.40;11.85;;;;;;;5.84;64.49;102192.50;348108;28;1101;-60
2021/03/21 00:17:28;;;;;;;14.57;11.80;;;;;;;5.86;65.28;102184.63;348092;28;1081;-60
2021/03/21 00:17:39;;;;;;;14.77;11.95;;;;;;;5.86;64.98;102190.72;348047;28;2197;-60
2021/03/21 00:17:51;;;;;;;15.07;12.40;;;;;;;5.88;65.24;102188.97;347994;28;1173;-60
2021/03/21 00:18:03;;;;;;;15.05;12.38;;;;;;;5.89;64.53;102180.25;348035;28;1104;-60
2021/03/21 00:18:14;;;;;;;15.57;12.45;;;;;;;5.86;65.52;102185.47;348139;28;983;-60
2021/03/21 00:18:30;;;;;;;15.88;12.55;;;;;;;5.87;64.13;102187.22;348146;28;1108;-60
2021/03/21 00:18:42;;;;;;;15.65;12.70;;;;;;;5.88;65.42;102182.84;346605;28;49208;-60
2021/03/21 00:18:54;;;;;;;15.25;12.63;;;;;;;5.85;64.48;102178.53;348099;28;1155;-60
2021/03/21 00:19:07;;;;;;;14.95;12.43;;;;;;;5.84;65.70;102179.38;348181;28;1069;-60
2021/03/21 00:19:18;;;;;;;14.80;12.77;;;;;;;5.82;65.71;102183.75;347409;28;23856;-60
2021/03/21 00:19:29;;;;;;;14.18;12.50;;;;;;;5.82;65.68;102177.66;348192;28;1426;-61
2021/03/21 00:19:40;;;;;;;14.05;12.48;;;;;;;5.82;66.37;102181.13;348190;28;1041;-61
2021/03/21 00:19:51;;;;;;;14.55;12.50;;;;;;;5.83;65.09;102184.66;348135;28;1181;-61
2021/03/21 00:20:06;;;;;;;14.52;12.40;;;;;;;5.83;65.88;102175.00;349417;28;1208;-61
2021/03/21 00:20:22;;;;;;;15.18;12.05;;;;;;;5.83;65.89;102179.41;348668;28;23964;-61
2021/03/21 00:20:35;;;;;;;15.57;12.45;;;;;;;5.83;64.99;102177.63;346977;28;70723;-61
2021/03/21 00:20:48;;;;;;;15.15;12.48;;;;;;;5.83;64.92;102180.25;348532;28;23961;-61
2021/03/21 00:21:00;;;;;;;14.75;12.18;;;;;;;5.76;64.29;102178.53;349430;28;1098;-61
2021/03/21 00:21:13;;;;;;;14.98;12.07;;;;;;;5.80;65.56;102176.75;349439;28;1140;-61
2021/03/21 00:21:24;;;;;;;15.24;12.04;;;;;;;5.70;64.60;102171.59;349484;28;1054;-61
2021/03/21 00:21:35;;;;;;;15.73;12.15;;;;;;;5.67;64.76;102178.56;349346;28;1126;-61
2021/03/21 00:21:47;;;;;;;16.00;12.52;;;;;;;5.66;64.34;102176.81;349428;28;1143;-61
2021/03/21 00:21:58;;;;;;;16.60;12.68;;;;;;;5.68;64.58;102177.69;348058;28;1093;-61
2021/03/21 00:22:09;;;;;;;15.35;12.13;;;;;;;5.67;64.96;102171.56;348069;28;1105;-62
2021/03/21 00:22:20;;;;;;;14.88;12.45;;;;;;;5.69;66.02;102175.06;348086;28;1026;-61
2021/03/21 00:22:32;;;;;;;14.38;12.60;;;;;;;5.74;65.10;102168.06;348036;28;1144;-61
2021/03/21 00:22:43;;;;;;;15.35;13.23;;;;;;;5.70;65.97;102168.06;348002;28;1134;-61
2021/03/21 00:22:54;;;;;;;15.50;12.73;;;;;;;5.71;65.29;102169.81;348080;28;1144;-61
2021/03/21 00:23:06;;;;;;;16.17;12.32;;;;;;;5.72;65.79;102168.94;348040;28;1065;-61
2021/03/21 00:23:19;;;;;;;15.35;12.02;;;;;;;5.74;65.92;102170.69;348089;28;1077;-61
2021/03/21 00:23:30;;;;;;;14.73;12.23;;;;;;;5.77;64.88;102170.66;348022;28;1166;-61
2021/03/21 00:23:41;;;;;;;15.75;12.65;;;;;;;5.79;66.33;102168.03;348001;28;1105;-61
2021/03/21 00:23:52;;;;;;;15.73;12.60;;;;;;;5.81;65.96;102173.28;348534;28;1084;-61
2021/03/21 00:24:05;;;;;;;15.80;12.23;;;;;;;5.83;65.40;102171.53;349419;28;1069;-61
2021/03/21 00:24:16;;;;;;;15.82;12.35;;;;;;;5.82;66.33;102165.41;349461;28;2027;-61
2021/03/21 00:24:27;;;;;;;14.90;12.43;;;;;;;5.83;65.51;102169.78;349396;28;1095;-61
2021/03/21 00:24:51;;;;;;;15.32;12.65;;;;;;;5.84;65.67;102171.53;346872;28;71365;-60
2021/03/21 00:25:09;;;;;;;16.23;12.63;;;;;;;5.64;64.07;102170.72;349218;28;1150;-61
2021/03/21 00:25:23;;;;;;;17.80;13.10;;;;;;;5.54;65.40;102168.13;347029;28;70777;-61
2021/03/21 00:25:37;;;;;;;17.05;13.20;;;;;;;5.58;65.54;102169.00;349394;28;1248;-61
2021/03/21 00:25:49;;;;;;;14.80;12.65;;;;;;;5.61;65.33;102163.75;346405;28;45535;-61
2021/03/21 00:26:01;;;;;;;13.98;12.25;;;;;;;5.65;66.74;102170.72;349450;28;993;-61
2021/03/21 00:26:12;;;;;;;14.93;12.30;;;;;;;5.63;65.78;102171.59;349370;28;1142;-60
2021/03/21 00:26:24;;;;;;;15.52;12.60;;;;;;;5.61;66.29;102169.84;349377;28;1061;-61
2021/03/21 00:26:36;;;;;;;17.55;12.75;;;;;;;5.61;65.86;102169.00;348790;28;1220;-61
2021/03/21 00:26:47;;;;;;;17.17;12.63;;;;;;;5.62;66.51;102160.25;348176;28;1212;-61
2021/03/21 00:26:58;;;;;;;16.92;12.55;;;;;;;5.59;66.76;102157.63;348023;28;1097;-61
2021/03/21 00:27:09;;;;;;;15.60;13.00;;;;;;;5.62;66.00;102170.75;347983;28;1126;-61
2021/03/21 00:27:20;;;;;;;16.10;13.15;;;;;;;5.59;66.37;102169.00;348000;28;1133;-61
2021/03/21 00:27:31;;;;;;;15.82;12.80;;;;;;;5.64;66.03;102168.09;348066;28;1209;-61
2021/03/21 00:27:43;;;;;;;15.80;12.48;;;;;;;5.67;65.44;102171.56;348064;28;1199;-61
2021/03/21 00:27:55;;;;;;;15.55;12.48;;;;;;;5.67;65.26;102166.31;347922;28;1532;-62
2021/03/21 00:28:11;;;;;;;16.55;12.68;;;;;;;5.69;65.79;102167.22;347930;28;1910;-61
2021/03/21 00:28:24;;;;;;;17.33;12.90;;;;;;;5.67;66.41;102170.72;345644;28;71934;-61
2021/03/21 00:28:37;;;;;;;16.13;12.93;;;;;;;5.61;64.42;102163.75;347263;28;24145;-60
2021/03/21 00:28:49;;;;;;;15.56;12.64;;;;;;;5.61;65.25;102169.00;347976;28;1173;-60
2021/03/21 00:29:01;;;;;;;15.18;12.73;;;;;;;5.64;65.45;102173.34;349477;28;1064;-60
2021/03/21 00:29:12;;;;;;;15.02;12.60;;;;;;;5.68;65.42;102167.22;349339;28;1025;-62
2021/03/21 00:29:23;;;;;;;15.10;12.30;;;;;;;5.67;66.03;102158.47;349481;28;1095;-60
2021/03/21 00:29:36;;;;;;;14.88;12.45;;;;;;;5.67;66.07;102165.47;349459;28;1054;-62
2021/03/21 00:29:47;;;;;;;14.85;12.50;;;;;;;5.67;65.21;102161.09;349409;28;1086;-60
2021/03/21 00:29:58;;;;;;;15.18;12.70;;;;;;;5.69;66.55;102168.97;349363;28;1129;-60
2021/03/21 00:30:14;;;;;;;15.30;12.52;;;;;;;5.72;66.58;102166.31;349385;28;1069;-61
2021/03/21 00:30:35;;;;;;;16.35;12.20;;;;;;;5.73;66.40;102162.84;347779;28;49216;-60
2021/03/21 00:30:47;;;;;;;16.15;11.65;;;;;;;5.76;66.45;102162.81;345758;28;71537;-61
2021/03/21 00:31:00;;;;;;;16.52;12.10;;;;;;;5.76;65.84;102170.69;347281;28;23463;-60
2021/03/21 00:31:14;;;;;;;16.20;12.40;;;;;;;5.76;66.23;102162.81;348081;28;1177;-60
2021/03/21 00:31:26;;;;;;;15.13;12.30;;;;;;;5.79;64.90;102168.03;348228;28;1157;-60
2021/03/21 00:31:37;;;;;;;15.68;12.05;;;;;;;5.80;64.51;102169.78;348267;28;1054;-61
2021/03/21 00:31:48;;;;;;;15.30;12.07;;;;;;;5.79;65.87;102168.03;348111;28;963;-61
2021/03/21 00:32:00;;;;;;;14.55;11.90;;;;;;;5.73;65.37;102162.84;348132;28;1162;-60
2021/03/21 00:32:11;;;;;;;14.18;12.13;;;;;;;5.71;64.85;102169.81;348087;28;1111;-60
2021/03/21 00:32:23;;;;;;;15.32;12.25;;;;;;;5.70;64.75;102168.97;348163;28;1185;-62
2021/03/21 00:32:34;;;;;;;15.88;12.57;;;;;;;5.69;65.24;102150.63;348200;28;1184;-61
2021/03/21 00:32:46;;;;;;;15.32;12.30;;;;;;;5.71;65.53;102162.81;348015;28;1139;-61
2021/03/21 00:32:58;;;;;;;14.85;12.20;;;;;;;5.67;64.86;102168.09;348003;28;1073;-60
2021/03/21 00:33:11;;;;;;;15.25;12.18;;;;;;;5.69;65.12;102169.84;348000;28;1069;-61
2021/03/21 00:33:26;;;;;;;16.23;12.55;;;;;;;5.73;65.66;102170.69;348009;28;1115;-61
2021/03/21 00:33:38;;;;;;;16.30;12.73;;;;;;;5.72;66.21;102168.94;346489;28;48371;-60
2021/03/21 00:33:49;;;;;;;15.60;12.40;;;;;;;5.59;64.89;102169.00;347896;28;1162;-60
2021/03/21 00:34:01;;;;;;;13.98;11.82;;;;;;;5.53;64.63;102170.75;348072;28;1081;-60
2021/03/21 00:34:12;;;;;;;13.60;11.50;;;;;;;5.49;64.60;102169.03;348043;28;1042;-61
2021/03/21 00:34:23;;;;;;;13.55;11.23;;;;;;;5.49;65.42;102167.25;348103;28;1061;-60
2021/03/21 00:34:34;;;;;;;14.52;11.27;;;;;;;5.49;64.96;102162.03;348105;28;1132;-61
2021/03/21 00:34:45;;;;;;;14.88;11.35;;;;;;;5.55;65.61;102169.88;348007;28;1148;-60
2021/03/21 00:34:56;;;;;;;14.90;11.27;;;;;;;5.53;64.60;102171.63;348172;28;1156;-61
2021/03/21 00:35:08;;;;;;;14.55;11.25;;;;;;;5.59;65.95;102173.34;348149;28;1152;-60
2021/03/21 00:35:20;;;;;;;14.68;11.52;;;;;;;5.61;65.01;102166.38;348167;28;1147;-62
2021/03/21 00:35:31;;;;;;;14.20;11.74;;;;;;;5.60;64.84;102173.38;348148;28;1105;-60
2021/03/21 00:35:43;;;;;;;14.52;11.80;;;;;;;5.63;65.21;102166.34;348055;28;1212;-60
2021/03/21 00:35:54;;;;;;;13.98;11.55;;;;;;;5.62;65.80;102170.75;348168;28;1094;-60
2021/03/21 00:36:08;;;;;;;14.32;11.77;;;;;;;5.67;65.99;102168.09;348126;28;1134;-61
2021/03/21 00:36:20;;;;;;;14.65;11.80;;;;;;;5.70;66.11;102171.59;346785;28;23595;-61
2021/03/21 00:36:31;;;;;;;15.10;11.80;;;;;;;5.71;65.39;102173.31;347120;28;1922;-60
2021/03/21 00:36:42;;;;;;;15.55;11.82;;;;;;;5.69;64.76;102172.44;348120;28;1118;-60
2021/03/21 00:36:53;;;;;;;15.95;12.07;;;;;;;5.68;65.94;102165.47;348140;28;1150;-61
2021/03/21 00:37:05;;;;;;;14.85;11.95;;;;;;;5.69;65.08;102171.59;348073;28;1092;-61
2021/03/21 00:37:16;;;;;;;13.75;11.65;;;;;;;5.70;64.79;102163.72;348089;28;1038;-61
2021/03/21 00:37:27;;;;;;;13.68;11.60;;;;;;;5.76;64.40;102168.06;346585;28;1225;-61
2021/03/21 00:37:41;;;;;;;14.05;11.70;;;;;;;5.79;65.85;102173.28;345045;28;1263;-60
2021/03/21 00:37:57;;;;;;;13.68;11.52;;;;;;;5.78;64.35;102167.19;344488;28;23483;-60
2021/03/21 00:38:16;;;;;;;13.38;11.50;;;;;;;5.82;64.88;102169.78;342951;28;70923;-60
2021/03/21 00:38:34;;;;;;;14.80;12.13;;;;;;;5.81;64.90;102171.53;342885;28;71717;-60
2021/03/21 00:38:50;;;;;;;15.40;12.60;;;;;;;5.83;64.04;102167.16;343002;28;70618;-61
2021/03/21 00:39:03;;;;;;;15.23;12.02;;;;;;;5.86;65.87;102172.38;343736;28;72022;-61
2021/03/21 00:39:14;;;;;;;14.70;11.70;;;;;;;5.85;64.76;102165.41;346591;28;1133;-60
2021/03/21 00:39:25;;;;;;;13.82;11.68;;;;;;;5.86;64.86;102172.38;346551;28;1220;-60
2021/03/21 00:39:36;;;;;;;13.80;11.63;;;;;;;5.86;64.72;102167.13;347587;28;1248;-60
2021/03/21 00:39:48;;;;;;;14.78;12.02;;;;;;;5.83;65.59;102169.78;346686;28;1058;-61
2021/03/21 00:39:59;;;;;;;15.27;12.10;;;;;;;5.85;64.99;102173.28;346686;28;1154;-61
2021/03/21 00:40:15;;;;;;;15.18;12.27;;;;;;;5.86;64.77;102172.38;346668;28;1117;-60
2021/03/21 00:40:28;;;;;;;14.30;11.80;;;;;;;5.86;65.03;102175.00;344204;28;72235;-62
2021/03/21 00:40:39;;;;;;;15.38;11.75;;;;;;;5.84;65.05;102165.38;346699;28;998;-64
2021/03/21 00:40:52;;;;;;;15.77;12.07;;;;;;;5.82;65.41;102170.63;346686;28;1149;-61
2021/03/21 00:41:04;;;;;;;16.45;12.20;;;;;;;5.84;64.16;102174.16;346599;28;1134;-62
2021/03/21 00:41:18;;;;;;;14.85;11.65;;;;;;;5.83;64.62;102177.63;346544;28;1220;-61
2021/03/21 00:41:30;;;;;;;13.95;11.35;;;;;;;5.84;64.33;102173.25;347233;28;24485;-61
2021/03/21 00:41:41;;;;;;;14.85;12.13;;;;;;;5.85;65.08;102175.91;348249;28;1086;-61
2021/03/21 00:41:52;;;;;;;14.85;12.18;;;;;;;5.89;65.65;102175.00;349390;28;1084;-62
2021/03/21 00:42:03;;;;;;;13.82;11.55;;;;;;;5.86;65.29;102174.13;349474;28;1208;-61
2021/03/21 00:42:15;;;;;;;14.00;11.30;;;;;;;5.92;64.59;102171.47;349249;28;1057;-61
2021/03/21 00:42:26;;;;;;;15.23;11.55;;;;;;;5.94;63.97;102167.97;349432;28;1006;-61
2021/03/21 00:42:37;;;;;;;14.80;11.75;;;;;;;5.97;64.36;102167.06;349417;28;1168;-61
2021/03/21 00:42:50;;;;;;;15.10;11.88;;;;;;;5.95;65.04;102174.09;349425;28;1125;-62
2021/03/21 00:43:01;;;;;;;16.83;12.38;;;;;;;5.94;64.40;102167.97;348022;28;1093;-61
2021/03/21 00:43:13;;;;;;;16.58;12.20;;;;;;;5.94;64.61;102167.97;347927;28;1208;-61
2021/03/21 00:43:26;;;;;;;16.25;12.32;;;;;;;5.97;64.26;102171.47;348075;28;1080;-61
2021/03/21 00:43:38;;;;;;;15.55;12.40;;;;;;;5.99;64.52;102164.47;347278;28;23954;-61
2021/03/21 00:43:51;;;;;;;14.07;12.00;;;;;;;6.03;64.08;102174.06;348010;28;1002;-61
2021/03/21 00:44:02;;;;;;;14.10;11.65;;;;;;;6.04;63.84;102160.94;347924;28;1209;-61
2021/03/21 00:44:14;;;;;;;14.13;11.73;;;;;;;6.03;64.29;102171.44;347996;28;1109;-61
2021/03/21 00:44:25;;;;;;;14.50;11.95;;;;;;;6.03;64.33;102168.81;348080;28;1065;-61
2021/03/21 00:44:37;;;;;;;14.07;12.15;;;;;;;6.03;65.43;102171.44;348002;28;1114;-61
2021/03/21 00:44:48;;;;;;;13.85;11.98;;;;;;;6.02;64.63;102173.22;348040;28;1134;-61
2021/03/21 00:44:59;;;;;;;13.57;11.88;;;;;;;6.04;64.79;102167.97;348903;28;1100;-61
2021/03/21 00:45:13;;;;;;;13.30;11.80;;;;;;;6.08;63.86;102174.94;349381;28;1150;-61
2021/03/21 00:45:25;;;;;;;13.95;11.88;;;;;;;6.12;65.32;102168.78;349435;28;1141;-61
2021/03/21 00:45:36;;;;;;;15.10;12.07;;;;;;;6.13;64.34;102172.28;349253;28;1350;-60
2021/03/21 00:45:49;;;;;;;14.93;11.90;;;;;;;6.02;64.56;102170.59;349393;28;1180;-61
2021/03/21 00:46:00;;;;;;;13.98;11.55;;;;;;;5.78;64.11;102175.03;349327;28;1146;-60
2021/03/21 00:46:12;;;;;;;14.70;11.95;;;;;;;5.71;64.87;102180.31;349405;28;1148;-61
2021/03/21 00:46:24;;;;;;;15.68;11.93;;;;;;;5.64;65.01;102168.09;348628;28;1032;-60
2021/03/21 00:46:36;;;;;;;15.02;11.32;;;;;;;5.54;65.01;102176.00;348200;28;1076;-61
2021/03/21 00:46:47;;;;;;;13.23;10.60;;;;;;;5.59;64.95;102170.72;348074;28;1143;-61
2021/03/21 00:46:58;;;;;;;12.75;10.68;;;;;;;5.70;65.15;102176.81;347350;28;1683;-61
2021/03/21 00:47:10;;;;;;;13.13;11.23;;;;;;;5.76;64.75;102171.53;346986;28;1812;-61
2021/03/21 00:47:21;;;;;;;14.70;11.57;;;;;;;5.81;65.07;102174.16;348170;28;1073;-61
2021/03/21 00:47:34;;;;;;;15.65;11.68;;;;;;;5.87;64.71;102175.88;348207;28;1156;-60
2021/03/21 00:47:46;;;;;;;15.02;11.55;;;;;;;5.88;65.17;102175.88;348103;28;1069;-61
2021/03/21 00:47:57;;;;;;;14.18;11.70;;;;;;;5.83;65.33;102177.63;348079;28;1059;-61
2021/03/21 00:48:16;;;;;;;14.40;11.80;;;;;;;5.90;63.87;102171.47;348166;28;1179;-62
2021/03/21 00:48:34;;;;;;;14.38;11.80;;;;;;;5.92;65.23;102174.09;345715;28;71629;-61
2021/03/21 00:48:46;;;;;;;14.60;11.63;;;;;;;5.91;65.27;102185.47;345657;28;71681;-61
2021/03/21 00:48:57;;;;;;;14.75;11.82;;;;;;;5.91;65.33;102178.47;347998;28;1228;-60
2021/03/21 00:49:08;;;;;;;14.75;11.50;;;;;;;5.90;63.98;102178.50;348002;28;1094;-61
2021/03/21 00:49:19;;;;;;;14.95;11.65;;;;;;;5.89;64.90;102176.72;348092;28;1148;-61
2021/03/21 00:49:31;;;;;;;15.13;11.80;;;;;;;5.92;64.87;102174.09;348087;28;1184;-61
2021/03/21 00:49:42;;;;;;;14.35;11.90;;;;;;;5.95;64.67;102174.97;347954;28;1057;-61
2021/03/21 00:49:53;;;;;;;14.23;12.30;;;;;;;5.98;64.44;102173.25;347968;28;2658;-61
2021/03/21 00:50:07;;;;;;;14.20;12.10;;;;;;;5.94;65.37;102170.59;348021;28;1022;-62
2021/03/21 00:50:31;;;;;;;14.73;11.73;;;;;;;5.95;65.26;102169.72;347488;28;19054;-61
2021/03/21 00:50:42;;;;;;;14.93;12.02;;;;;;;5.93;64.36;102163.63;345637;28;71356;-61
2021/03/21 00:50:55;;;;;;;14.52;12.10;;;;;;;5.94;64.67;102173.22;348120;28;1081;-62
2021/03/21 00:51:07;;;;;;;14.38;11.93;;;;;;;5.80;64.62;102175.03;348175;28;1301;-62
2021/03/21 00:51:18;;;;;;;14.55;12.02;;;;;;;5.83;65.12;102175.00;348130;28;1317;-62
2021/03/21 00:51:29;;;;;;;14.68;11.95;;;;;;;5.86;64.37;102174.13;348161;28;1168;-61
2021/03/21 00:51:40;;;;;;;14.27;11.98;;;;;;;5.90;65.14;102168.84;348053;28;1561;-62
2021/03/21 00:51:51;;;;;;;15.02;12.15;;;;;;;5.87;63.75;102179.38;348170;28;1062;-62
2021/03/21 00:52:03;;;;;;;14.02;11.88;;;;;;;5.84;63.62;102176.75;348105;28;1209;-61
2021/03/21 00:52:14;;;;;;;14.73;11.98;;;;;;;5.85;64.70;102175.00;348247;28;840;-64
2021/03/21 00:52:26;;;;;;;15.65;12.20;;;;;;;5.88;65.43;102170.63;348143;28;2191;-62
2021/03/21 00:52:37;;;;;;;16.63;12.50;;;;;;;5.85;65.51;102162.78;348114;28;1142;-62
2021/03/21 00:52:48;;;;;;;15.82;12.23;;;;;;;5.86;64.67;102175.00;348160;28;1118;-61
2021/03/21 00:53:00;;;;;;;16.60;12.25;;;;;;;5.82;65.51;102167.16;348185;28;1125;-62
2021/03/21 00:53:12;;;;;;;17.50;12.23;;;;;;;5.84;64.79;102175.88;348093;28;1084;-62
2021/03/21 00:53:23;;;;;;;18.02;12.65;;;;;;;5.84;64.12;102181.13;348088;28;1123;-61
2021/03/21 00:53:34;;;;;;;15.60;12.43;;;;;;;5.81;64.18;102166.31;348152;28;1081;-62
2021/03/21 00:53:46;;;;;;;15.73;12.40;;;;;;;5.77;65.02;102175.06;348173;28;1145;-61
2021/03/21 00:53:57;;;;;;;14.73;12.18;;;;;;;5.77;65.31;102172.44;348142;28;1208;-61
2021/03/21 00:54:08;;;;;;;15.57;12.27;;;;;;;5.80;64.95;102174.16;348139;28;1188;-62
2021/03/21 00:54:19;;;;;;;14.60;12.07;;;;;;;5.83;64.04;102177.63;348119;28;1218;-60
2021/03/21 00:54:30;;;;;;;15.48;12.32;;;;;;;5.84;64.55;102176.75;349455;28;1050;-63
2021/03/21 00:54:41;;;;;;;15.43;12.35;;;;;;;5.78;64.16;102171.53;349503;28;1121;-63
2021/03/21 00:54:59;;;;;;;16.27;12.40;;;;;;;5.58;64.63;102164.63;347101;28;71811;-62
2021/03/21 00:55:14;;;;;;;15.63;12.65;;;;;;;5.54;65.85;102170.75;347808;28;46872;-64
2021/03/21 00:55:26;;;;;;;14.95;12.50;;;;;;;5.43;65.23;102176.03;349536;28;1094;-62
2021/03/21 00:55:38;;;;;;;16.30;12.77;;;;;;;5.48;64.88;102169.91;349505;28;1152;-62
2021/03/21 00:55:53;;;;;;;16.52;13.20;;;;;;;5.37;66.20;102169.91;347116;28;72055;-62
2021/03/21 00:56:06;;;;;;;14.48;12.63;;;;;;;5.28;65.47;102172.59;349470;28;1228;-61
2021/03/21 00:56:33;;;;;;;16.23;12.88;;;;;;;5.43;65.69;102177.78;349385;28;2436;-61
2021/03/21 00:56:44;;;;;;;16.63;13.05;;;;;;;5.52;65.80;102176.88;347138;28;71404;-61
2021/03/21 00:56:55;;;;;;;15.43;12.70;;;;;;;5.55;66.62;102176.84;349539;28;1053;-62
2021/03/21 00:57:06;;;;;;;16.35;12.57;;;;;;;5.58;65.01;102180.34;349356;28;2044;-61
2021/03/21 00:57:18;;;;;;;16.05;12.85;;;;;;;5.63;66.12;102179.47;349464;28;1147;-61
2021/03/21 00:57:29;;;;;;;16.13;13.43;;;;;;;5.60;65.51;102178.63;347997;28;1158;-62
2021/03/21 00:57:41;;;;;;;16.20;13.02;;;;;;;5.64;65.60;102173.34;346879;28;1752;-62